Observation data for Roaring Springs on 12/10/2018      Previous  Date  Next       Current Mesonet Observations  Soil Data  Daily Summary Page  Observations in Plain Language
KRRS 100600Z 28010KT M02/M03 A3035 RMK A01 T10171034  RH  089%=      5-min Rain = 0
KRRS 100605Z 28010KT M02/M03 A3035 RMK A01 T10161034  RH  088%=      5-min Rain = 0
KRRS 100610Z 27011KT M02/M04 A3035 RMK A01 T10161035  RH  087%=      5-min Rain = 0
KRRS 100615Z 28012KT M02/M04 A3035 RMK A01 T10181037  RH  087%=      5-min Rain = 0
KRRS 100620Z 28011KT M02/M04 A3035 RMK A01 T10211039  RH  088%=      5-min Rain = 0
KRRS 100625Z 28012KT M02/M04 A3035 RMK A01 T10221039  RH  088%=      5-min Rain = 0
KRRS 100630Z 28011KT M02/M04 A3035 RMK A01 T10221040  RH  088%=      5-min Rain = 0
KRRS 100635Z 28011KT M02/M04 A3035 RMK A01 T10241040  RH  089%=      5-min Rain = 0
KRRS 100640Z 27010KT M03/M04 A3035 RMK A01 T10261042  RH  089%=      5-min Rain = 0
KRRS 100645Z 28011KT M03/M04 A3034 RMK A01 T10261041  RH  090%=      5-min Rain = 0
KRRS 100650Z 28012KT M02/M04 A3034 RMK A01 T10241040  RH  089%=      5-min Rain = 0
KRRS 100655Z 28011KT M02/M04 A3034 RMK A01 T10241040  RH  089%=      5-min Rain = 0
KRRS 100700Z 28012KT M02/M04 A3034 RMK A01 T10241040  RH  089%=      5-min Rain = 0
KRRS 100705Z 28012KT M03/M04 A3034 RMK A01 T10251041  RH  089%=      5-min Rain = 0
KRRS 100710Z 28011KT M03/M04 A3034 RMK A01 T10271042  RH  090%=      5-min Rain = 0
KRRS 100715Z 28011KT M03/M04 A3034 RMK A01 T10291042  RH  091%=      5-min Rain = 0
KRRS 100720Z 28011KT M03/M04 A3033 RMK A01 T10291042  RH  091%=      5-min Rain = 0
KRRS 100725Z 28010KT M03/M04 A3033 RMK A01 T10291042  RH  091%=      5-min Rain = 0
KRRS 100730Z 28010KT M03/M04 A3033 RMK A01 T10281041  RH  091%=      5-min Rain = 0
KRRS 100735Z 27010KT M03/M04 A3033 RMK A01 T10271040  RH  091%=      5-min Rain = 0
KRRS 100740Z 28010KT M03/M04 A3033 RMK A01 T10261039  RH  091%=      5-min Rain = 0
KRRS 100745Z 27010KT M02/M04 A3033 RMK A01 T10241038  RH  091%=      5-min Rain = 0
KRRS 100750Z 27010KT M03/M04 A3033 RMK A01 T10251039  RH  091%=      5-min Rain = 0
KRRS 100755Z 27012KT M02/M04 A3033 RMK A01 T10241039  RH  090%=      5-min Rain = 0
KRRS 100800Z 27011KT M02/M04 A3033 RMK A01 T10241040  RH  089%=      5-min Rain = 0
KRRS 100805Z 28010KT M03/M04 A3032 RMK A01 T10251040  RH  090%=      5-min Rain = 0
KRRS 100810Z 27012KT M03/M04 A3032 RMK A01 T10251039  RH  090%=      5-min Rain = 0
KRRS 100815Z 27011KT M02/M04 A3032 RMK A01 T10231039  RH  089%=      5-min Rain = 0
KRRS 100820Z 27012KT M02/M04 A3032 RMK A01 T10241039  RH  090%=      5-min Rain = 0
KRRS 100825Z 27012KT M03/M04 A3032 RMK A01 T10251039  RH  090%=      5-min Rain = 0
KRRS 100830Z 27011KT M03/M04 A3032 RMK A01 T10271040  RH  091%=      5-min Rain = 0
KRRS 100835Z 27012KT M03/M04 A3032 RMK A01 T10271039  RH  092%=      5-min Rain = 0
KRRS 100840Z 28011KT M03/M04 A3032 RMK A01 T10271039  RH  092%=      5-min Rain = 0
KRRS 100845Z 28011KT M03/M04 A3032 RMK A01 T10271038  RH  092%=      5-min Rain = 0
KRRS 100850Z 28012KT M02/M04 A3031 RMK A01 T10241036  RH  092%=      5-min Rain = 0
KRRS 100855Z 27011KT M02/M04 A3031 RMK A01 T10211035  RH  091%=      5-min Rain = 0
KRRS 100900Z 27010KT M02/M04 A3031 RMK A01 T10231037  RH  090%=      5-min Rain = 0
KRRS 100905Z 27010KT M03/M04 A3031 RMK A01 T10251039  RH  091%=      5-min Rain = 0
KRRS 100910Z 27010KT M03/M04 A3031 RMK A01 T10271039  RH  092%=      5-min Rain = 0
KRRS 100915Z 28012KT M03/M04 A3031 RMK A01 T10261038  RH  092%=      5-min Rain = 0
KRRS 100920Z 28012KT M03/M04 A3032 RMK A01 T10261038  RH  092%=      5-min Rain = 0
KRRS 100925Z 28012KT M03/M04 A3031 RMK A01 T10251038  RH  091%=      5-min Rain = 0
KRRS 100930Z 28012KT M03/M04 A3031 RMK A01 T10251039  RH  091%=      5-min Rain = 0
KRRS 100935Z 27012KT M03/M04 A3031 RMK A01 T10261040  RH  090%=      5-min Rain = 0
KRRS 100940Z 28013KT M03/M04 A3031 RMK A01 T10271041  RH  090%=      5-min Rain = 0
KRRS 100945Z 28013KT M03/M04 A3031 RMK A01 T10281042  RH  091%=      5-min Rain = 0
KRRS 100950Z 28013KT M03/M04 A3031 RMK A01 T10291043  RH  091%=      5-min Rain = 0
KRRS 100955Z 28012KT M03/M04 A3031 RMK A01 T10301043  RH  091%=      5-min Rain = 0
KRRS 101000Z 28012KT M03/M04 A3031 RMK A01 T10311044  RH  091%=      5-min Rain = 0
KRRS 101005Z 28012KT M03/M04 A3031 RMK A01 T10311044  RH  091%=      5-min Rain = 0
KRRS 101010Z 28011KT M03/M04 A3031 RMK A01 T10301044  RH  091%=      5-min Rain = 0
KRRS 101015Z 28011KT M03/M04 A3031 RMK A01 T10311044  RH  091%=      5-min Rain = 0
KRRS 101020Z 28012KT M03/M04 A3031 RMK A01 T10301043  RH  091%=      5-min Rain = 0
KRRS 101025Z 28012KT M03/M04 A3031 RMK A01 T10291042  RH  091%=      5-min Rain = 0
KRRS 101030Z 28013KT M03/M04 A3031 RMK A01 T10261041  RH  090%=      5-min Rain = 0
KRRS 101035Z 28012KT M02/M04 A3031 RMK A01 T10241040  RH  089%=      5-min Rain = 0
KRRS 101040Z 28011KT M03/M04 A3031 RMK A01 T10251041  RH  089%=      5-min Rain = 0
KRRS 101045Z 28011KT M03/M04 A303 RMK A01 T10281044  RH  089%=      5-min Rain = 0
KRRS 101050Z 28010KT M03/M05 A303 RMK A01 T10311045  RH  091%=      5-min Rain = 0
KRRS 101055Z 28012KT M03/M04 A303 RMK A01 T10301044  RH  090%=      5-min Rain = 0
KRRS 101100Z 28012KT M03/M05 A303 RMK A01 T10311045  RH  090%=      5-min Rain = 0
KRRS 101105Z 28012KT M03/M05 A3031 RMK A01 T10311045  RH  090%=      5-min Rain = 0
KRRS 101110Z 28012KT M03/M05 A303 RMK A01 T10311045  RH  090%=      5-min Rain = 0
KRRS 101115Z 28011KT M03/M05 A303 RMK A01 T10321046  RH  090%=      5-min Rain = 0
KRRS 101120Z 28011KT M03/M05 A303 RMK A01 T10321045  RH  091%=      5-min Rain = 0
KRRS 101125Z 28011KT M03/M04 A303 RMK A01 T10281043  RH  090%=      5-min Rain = 0
KRRS 101130Z 28011KT M02/M04 A303 RMK A01 T10241042  RH  088%=      5-min Rain = 0
KRRS 101135Z 28012KT M02/M04 A3031 RMK A01 T10231042  RH  087%=      5-min Rain = 0
KRRS 101140Z 27011KT M03/M05 A3031 RMK A01 T10261045  RH  087%=      5-min Rain = 0
KRRS 101145Z 28010KT M03/M05 A3031 RMK A01 T10291046  RH  088%=      5-min Rain = 0
KRRS 101150Z 28012KT M03/M05 A3031 RMK A01 T10281045  RH  089%=      5-min Rain = 0
KRRS 101155Z 28013KT M03/M04 A3031 RMK A01 T10251043  RH  088%=      5-min Rain = 0
KRRS 101200Z 28014KT M02/M04 A3031 RMK A01 T10221043  RH  086%=      5-min Rain = 0
KRRS 101205Z 28014KT M02/M04 A3031 RMK A01 T10231044  RH  086%=      5-min Rain = 0
KRRS 101210Z 28014KT M03/M04 A3031 RMK A01 T10251044  RH  087%=      5-min Rain = 0
KRRS 101215Z 28014KT M03/M05 A3031 RMK A01 T10261045  RH  087%=      5-min Rain = 0
KRRS 101220Z 28013KT M03/M05 A3031 RMK A01 T10261045  RH  087%=      5-min Rain = 0
KRRS 101225Z 28012KT M03/M05 A3032 RMK A01 T10281046  RH  087%=      5-min Rain = 0
KRRS 101230Z 28012KT M03/M05 A3032 RMK A01 T10291047  RH  088%=      5-min Rain = 0
KRRS 101235Z 28012KT M03/M05 A3032 RMK A01 T10301048  RH  088%=      5-min Rain = 0
KRRS 101240Z 28011KT M03/M05 A3032 RMK A01 T10321049  RH  088%=      5-min Rain = 0
KRRS 101245Z 28013KT M03/M05 A3032 RMK A01 T10321049  RH  089%=      5-min Rain = 0
KRRS 101250Z 28013KT M03/M05 A3032 RMK A01 T10311048  RH  088%=      5-min Rain = 0
KRRS 101255Z 28013KT M03/M05 A3032 RMK A01 T10321049  RH  088%=      5-min Rain = 0
KRRS 101300Z 28012KT M03/M05 A3032 RMK A01 T10331050  RH  089%=      5-min Rain = 0
KRRS 101305Z 28013KT M03/M05 A3032 RMK A01 T10331049  RH  089%=      5-min Rain = 0
KRRS 101310Z 28013KT M03/M05 A3032 RMK A01 T10321049  RH  088%=      5-min Rain = 0
KRRS 101315Z 28013KT M03/M05 A3032 RMK A01 T10311049  RH  088%=      5-min Rain = 0
KRRS 101320Z 28013KT M03/M05 A3032 RMK A01 T10311049  RH  088%=      5-min Rain = 0
KRRS 101325Z 28013KT M03/M05 A3032 RMK A01 T10321049  RH  088%=      5-min Rain = 0
KRRS 101330Z 28013KT M03/M05 A3032 RMK A01 T10301048  RH  088%=      5-min Rain = 0
KRRS 101335Z 28012KT M03/M05 A3032 RMK A01 T10311049  RH  088%=      5-min Rain = 0
KRRS 101340Z 28013KT M03/M05 A3032 RMK A01 T10321049  RH  089%=      5-min Rain = 0
KRRS 101345Z 28012KT M03/M05 A3033 RMK A01 T10311048  RH  089%=      5-min Rain = 0
KRRS 101350Z 28013KT M03/M05 A3033 RMK A01 T10281046  RH  088%=      5-min Rain = 0
KRRS 101355Z 28013KT M02/M04 A3033 RMK A01 T10241043  RH  087%=      5-min Rain = 0
KRRS 101400Z 28013KT M02/M04 A3033 RMK A01 T10201040  RH  086%=      5-min Rain = 0
KRRS 101405Z 28013KT M02/M04 A3033 RMK A01 T10161038  RH  085%=      5-min Rain = 0
KRRS 101410Z 28012KT M01/M04 A3033 RMK A01 T10131036  RH  085%=      5-min Rain = 0
KRRS 101415Z 28012KT M01/M03 A3033 RMK A01 T10091032  RH  084%=      5-min Rain = 0
KRRS 101420Z 28012KT M01/M03 A3033 RMK A01 T10051030  RH  084%=      5-min Rain = 0
KRRS 101425Z 28011KT M00/M03 A3034 RMK A01 T10031029  RH  083%=      5-min Rain = 0
KRRS 101430Z 28011KT 00/03 A3034 RMK A01 T00-00-26  RH  084%=      5-min Rain = 0
KRRS 101435Z 27010KT 00/M02 A3034 RMK A01 T00041022  RH  083%=      5-min Rain = 0
KRRS 101440Z 28009KT 01/M02 A3034 RMK A01 T00061022  RH  082%=      5-min Rain = 0
KRRS 101445Z 28010KT 01/M02 A3034 RMK A01 T00061021  RH  083%=      5-min Rain = 0
KRRS 101450Z 28010KT 01/M02 A3034 RMK A01 T00131016  RH  082%=      5-min Rain = 0
KRRS 101455Z 29011KT 02/M01 A3034 RMK A01 T00221011  RH  080%=      5-min Rain = 0
KRRS 101500Z 28011KT 03/M01 A3034 RMK A01 T00291007  RH  078%=      5-min Rain = 0
KRRS 101505Z 28010KT 04/M00 A3034 RMK A01 T00351004  RH  076%=      5-min Rain = 0
KRRS 101510Z 28009KT 04/M00 A3035 RMK A01 T00401003  RH  075%=      5-min Rain = 0
KRRS 101515Z 28009KT 04/M00 A3035 RMK A01 T00421002  RH  074%=      5-min Rain = 0
KRRS 101520Z 28010KT 05/M00 A3035 RMK A01 T00451001  RH  073%=      5-min Rain = 0
KRRS 101525Z 28010KT 05/00 A3035 RMK A01 T00490001  RH  072%=      5-min Rain = 0
KRRS 101530Z 28011KT 05/00 A3035 RMK A01 T00520002  RH  071%=      5-min Rain = 0
KRRS 101535Z 28010KT 05/00 A3035 RMK A01 T00540003  RH  070%=      5-min Rain = 0
KRRS 101540Z 28011KT 06/00 A3035 RMK A01 T00560002  RH  069%=      5-min Rain = 0
KRRS 101545Z 28010KT 06/00 A3035 RMK A01 T00590002  RH  068%=      5-min Rain = 0
KRRS 101550Z 28008KT 06/00 A3035 RMK A01 T00620002  RH  066%=      5-min Rain = 0
KRRS 101555Z 26007KT 06/00 A3036 RMK A01 T00620004  RH  067%=      5-min Rain = 0.01
KRRS 101600Z 25008KT 06/01 A3036 RMK A01 T00590005  RH  069%=      5-min Rain = 0
KRRS 101605Z 25008KT 06/00 A3036 RMK A01 T00570004  RH  070%=      5-min Rain = 0
KRRS 101610Z 26007KT 06/01 A3036 RMK A01 T00590005  RH  069%=      5-min Rain = 0.02
KRRS 101615Z 26009KT 06/00 A3036 RMK A01 T00610004  RH  067%=      5-min Rain = 0
KRRS 101620Z 26008KT 06/01 A3036 RMK A01 T00610005  RH  068%=      5-min Rain = 0
KRRS 101625Z 27008KT 06/01 A3036 RMK A01 T00620006  RH  069%=      5-min Rain = 0.01
KRRS 101630Z 27008KT 06/01 A3036 RMK A01 T00610007  RH  069%=      5-min Rain = 0
KRRS 101635Z 27009KT 06/01 A3036 RMK A01 T00580007  RH  070%=      5-min Rain = 0
KRRS 101640Z 27008KT 06/01 A3036 RMK A01 T00570009  RH  072%=      5-min Rain = 0.01
KRRS 101645Z 27008KT 06/01 A3036 RMK A01 T00570010  RH  073%=      5-min Rain = 0
KRRS 101650Z 27008KT 06/01 A3036 RMK A01 T00580011  RH  073%=      5-min Rain = 0.01
KRRS 101655Z 27009KT 06/01 A3036 RMK A01 T00600013  RH  073%=      5-min Rain = 0
KRRS 101700Z 27008KT 06/01 A3036 RMK A01 T00620013  RH  072%=      5-min Rain = 0.01
KRRS 101705Z 27008KT 06/01 A3036 RMK A01 T00640014  RH  072%=      5-min Rain = 0
KRRS 101710Z 28009KT 07/02 A3036 RMK A01 T00670017  RH  071%=      5-min Rain = 0.01
KRRS 101715Z 29010KT 07/02 A3035 RMK A01 T00710020  RH  071%=      5-min Rain = 0.01
KRRS 101720Z 29011KT 07/02 A3035 RMK A01 T00740021  RH  070%=      5-min Rain = 0.01
KRRS 101725Z 28010KT 08/02 A3035 RMK A01 T00750022  RH  070%=      5-min Rain = 0.02
KRRS 101730Z 28011KT 08/02 A3035 RMK A01 T00760021  RH  070%=      5-min Rain = 0.01
KRRS 101735Z 28012KT 08/02 A3035 RMK A01 T00760021  RH  069%=      5-min Rain = 0.01
KRRS 101740Z 28011KT 08/02 A3035 RMK A01 T00760021  RH  069%=      5-min Rain = 0.02
KRRS 101745Z 28008KT 08/02 A3034 RMK A01 T00770022  RH  069%=      5-min Rain = 0
KRRS 101750Z 29006KT 08/02 A3035 RMK A01 T00760022  RH  070%=      5-min Rain = 0
KRRS 101755Z 36003KT 08/02 A3035 RMK A01 T00770022  RH  070%=      5-min Rain = 0
KRRS 101800Z 34006KT 08/02 A3034 RMK A01 T00800023  RH  068%=      5-min Rain = 0
KRRS 101805Z 32005KT 08/02 A3034 RMK A01 T00810023  RH  068%=      5-min Rain = 0
KRRS 101810Z 32005KT 08/03 A3034 RMK A01 T00830025  RH  068%=      5-min Rain = 0
KRRS 101815Z 32005KT 09/03 A3033 RMK A01 T00870026  RH  066%=      5-min Rain = 0
KRRS 101820Z 34005KT 09/03 A3033 RMK A01 T00910025  RH  064%=      5-min Rain = 0
KRRS 101825Z 05007KT 09/03 A3032 RMK A01 T00920027  RH  065%=      5-min Rain = 0
KRRS 101830Z 07008KT 08/03 A3032 RMK A01 T00820026  RH  069%=      5-min Rain = 0
KRRS 101835Z 07007KT 08/02 A3032 RMK A01 T00770023  RH  070%=      5-min Rain = 0
KRRS 101840Z 07007KT 08/02 A3032 RMK A01 T00750022  RH  070%=      5-min Rain = 0
KRRS 101845Z 08005KT 08/02 A3032 RMK A01 T00760022  RH  070%=      5-min Rain = 0
KRRS 101850Z 09005KT 08/02 A3032 RMK A01 T00780023  RH  069%=      5-min Rain = 0
KRRS 101855Z 10005KT 08/02 A3032 RMK A01 T00780023  RH  069%=      5-min Rain = 0
KRRS 101900Z 11004KT 08/02 A3032 RMK A01 T00800024  RH  069%=      5-min Rain = 0
KRRS 101905Z 09004KT 08/03 A3031 RMK A01 T00820025  RH  068%=      5-min Rain = 0
KRRS 101910Z 09004KT 08/03 A3031 RMK A01 T00830025  RH  068%=      5-min Rain = 0
KRRS 101915Z 10004KT 08/03 A3031 RMK A01 T00840027  RH  069%=      5-min Rain = 0
KRRS 101920Z 11004KT 08/03 A303 RMK A01 T00840028  RH  069%=      5-min Rain = 0
KRRS 101925Z 10004KT 08/03 A303 RMK A01 T00840028  RH  069%=      5-min Rain = 0
KRRS 101930Z 11004KT 09/03 A303 RMK A01 T00850030  RH  069%=      5-min Rain = 0
KRRS 101935Z 09004KT 09/03 A303 RMK A01 T00850029  RH  069%=      5-min Rain = 0
KRRS 101940Z 09004KT 09/03 A303 RMK A01 T00860030  RH  069%=      5-min Rain = 0
KRRS 101945Z 11003KT 09/03 A3029 RMK A01 T00880032  RH  069%=      5-min Rain = 0
KRRS 101950Z 10002KT 09/03 A3029 RMK A01 T00900032  RH  068%=      5-min Rain = 0
KRRS 101955Z 09002KT 09/03 A3029 RMK A01 T00930034  RH  068%=      5-min Rain = 0
KRRS 102000Z 08003KT 09/03 A3029 RMK A01 T00930034  RH  068%=      5-min Rain = 0
KRRS 102005Z 10003KT 09/04 A3029 RMK A01 T00930036  RH  069%=      5-min Rain = 0
KRRS 102010Z 14003KT 10/04 A3029 RMK A01 T00990037  RH  067%=      5-min Rain = 0
KRRS 102015Z 13003KT 10/04 A3029 RMK A01 T01040038  RH  065%=      5-min Rain = 0
KRRS 102020Z 15003KT 11/04 A3029 RMK A01 T01070035  RH  062%=      5-min Rain = 0
KRRS 102025Z 21004KT 11/03 A3028 RMK A01 T01060030  RH  060%=      5-min Rain = 0
KRRS 102030Z 21003KT 11/03 A3028 RMK A01 T01080031  RH  060%=      5-min Rain = 0
KRRS 102035Z 22005KT 11/03 A3028 RMK A01 T01060031  RH  061%=      5-min Rain = 0
KRRS 102040Z 23005KT 11/03 A3028 RMK A01 T01050029  RH  060%=      5-min Rain = 0
KRRS 102045Z 24005KT 10/03 A3028 RMK A01 T01040025  RH  059%=      5-min Rain = 0
KRRS 102050Z 26007KT 10/02 A3028 RMK A01 T01030018  RH  057%=      5-min Rain = 0
KRRS 102055Z 25005KT 10/02 A3028 RMK A01 T01030021  RH  058%=      5-min Rain = 0
KRRS 102100Z 26004KT 11/02 A3028 RMK A01 T01050024  RH  058%=      5-min Rain = 0
KRRS 102105Z 24005KT 11/03 A3028 RMK A01 T01050026  RH  059%=      5-min Rain = 0
KRRS 102110Z 22007KT 10/03 A3028 RMK A01 T01020026  RH  060%=      5-min Rain = 0
KRRS 102115Z 23007KT 10/02 A3028 RMK A01 T01010024  RH  060%=      5-min Rain = 0
KRRS 102120Z 23006KT 10/02 A3028 RMK A01 T01010023  RH  059%=      5-min Rain = 0
KRRS 102125Z 22006KT 10/02 A3028 RMK A01 T01010022  RH  059%=      5-min Rain = 0
KRRS 102130Z 22007KT 10/02 A3028 RMK A01 T01000022  RH  059%=      5-min Rain = 0
KRRS 102135Z 22008KT 10/02 A3028 RMK A01 T00980018  RH  058%=      5-min Rain = 0
KRRS 102140Z 22007KT 10/02 A3028 RMK A01 T00990016  RH  057%=      5-min Rain = 0
KRRS 102145Z 22007KT 10/01 A3027 RMK A01 T00990014  RH  056%=      5-min Rain = 0
KRRS 102150Z 22006KT 10/02 A3027 RMK A01 T01000016  RH  057%=      5-min Rain = 0
KRRS 102155Z 22006KT 10/02 A3028 RMK A01 T01010017  RH  057%=      5-min Rain = 0
KRRS 102200Z 23005KT 10/02 A3028 RMK A01 T01010015  RH  056%=      5-min Rain = 0
KRRS 102205Z 23004KT 10/02 A3028 RMK A01 T01020017  RH  056%=      5-min Rain = 0
KRRS 102210Z 23004KT 10/02 A3028 RMK A01 T01040018  RH  056%=      5-min Rain = 0
KRRS 102215Z 18005KT 10/03 A3028 RMK A01 T01030026  RH  059%=      5-min Rain = 0
KRRS 102220Z 18005KT 10/03 A3028 RMK A01 T01020028  RH  061%=      5-min Rain = 0
KRRS 102225Z 18006KT 10/03 A3028 RMK A01 T00990030  RH  063%=      5-min Rain = 0
KRRS 102230Z 17005KT 10/03 A3027 RMK A01 T00990026  RH  062%=      5-min Rain = 0
KRRS 102235Z 17005KT 10/03 A3027 RMK A01 T00990026  RH  061%=      5-min Rain = 0
KRRS 102240Z 18006KT 10/03 A3028 RMK A01 T00960025  RH  062%=      5-min Rain = 0
KRRS 102245Z 19005KT 09/03 A3027 RMK A01 T00920026  RH  064%=      5-min Rain = 0
KRRS 102250Z 19006KT 09/02 A3028 RMK A01 T00890023  RH  064%=      5-min Rain = 0
KRRS 102255Z 17006KT 09/02 A3028 RMK A01 T00870023  RH  065%=      5-min Rain = 0
KRRS 102300Z 18006KT 08/03 A3028 RMK A01 T00840025  RH  068%=      5-min Rain = 0
KRRS 102305Z 19007KT 08/02 A3028 RMK A01 T00770023  RH  070%=      5-min Rain = 0
KRRS 102310Z 19007KT 07/02 A3028 RMK A01 T00720020  RH  070%=      5-min Rain = 0
KRRS 102315Z 19007KT 07/02 A3028 RMK A01 T00680019  RH  072%=      5-min Rain = 0
KRRS 102320Z 18006KT 06/02 A3028 RMK A01 T00630017  RH  073%=      5-min Rain = 0
KRRS 102325Z 20007KT 06/02 A3028 RMK A01 T00610017  RH  074%=      5-min Rain = 0
KRRS 102330Z 21007KT 06/02 A3028 RMK A01 T00590015  RH  075%=      5-min Rain = 0
KRRS 102335Z 20008KT 06/01 A3028 RMK A01 T00550014  RH  076%=      5-min Rain = 0
KRRS 102340Z 20008KT 05/01 A3028 RMK A01 T00520014  RH  077%=      5-min Rain = 0
KRRS 102345Z 20007KT 05/01 A3028 RMK A01 T00480012  RH  078%=      5-min Rain = 0
KRRS 102350Z 19007KT 05/01 A3028 RMK A01 T00450011  RH  079%=      5-min Rain = 0
KRRS 102355Z 20006KT 04/01 A3029 RMK A01 T00410009  RH  081%=      5-min Rain = 0
KRRS 110000Z 20007KT 04/01 A3029 RMK A01 T00370009  RH  083%=      5-min Rain = 0
KRRS 110005Z 21008KT 04/01 A3029 RMK A01 T00350008  RH  084%=      5-min Rain = 0
KRRS 110010Z 21008KT 03/01 A3029 RMK A01 T00330008  RH  085%=      5-min Rain = 0
KRRS 110015Z 22008KT 03/01 A3029 RMK A01 T00330008  RH  084%=      5-min Rain = 0
KRRS 110020Z 21008KT 03/01 A3029 RMK A01 T00330007  RH  084%=      5-min Rain = 0
KRRS 110025Z 21008KT 03/01 A3029 RMK A01 T00330006  RH  084%=      5-min Rain = 0
KRRS 110030Z 21008KT 03/01 A3029 RMK A01 T00330006  RH  084%=      5-min Rain = 0
KRRS 110035Z 20008KT 03/01 A3029 RMK A01 T00310005  RH  084%=      5-min Rain = 0
KRRS 110040Z 21009KT 03/01 A3028 RMK A01 T00290005  RH  085%=      5-min Rain = 0
KRRS 110045Z 21008KT 03/00 A3028 RMK A01 T00280003  RH  085%=      5-min Rain = 0
KRRS 110050Z 22008KT 02/00 A3028 RMK A01 T00240002  RH  086%=      5-min Rain = 0
KRRS 110055Z 22008KT 02/00 A3028 RMK A01 T00220002  RH  088%=      5-min Rain = 0
KRRS 110100Z 22008KT 02/00 A3028 RMK A01 T00220002  RH  088%=      5-min Rain = 0
KRRS 110105Z 21008KT 02/00 A3028 RMK A01 T00230003  RH  088%=      5-min Rain = 0
KRRS 110110Z 21008KT 03/00 A3028 RMK A01 T00250004  RH  087%=      5-min Rain = 0
KRRS 110115Z 21008KT 02/00 A3028 RMK A01 T00240003  RH  087%=      5-min Rain = 0
KRRS 110120Z 21009KT 02/00 A3028 RMK A01 T00240003  RH  087%=      5-min Rain = 0
KRRS 110125Z 21007KT 02/00 A3028 RMK A01 T00230002  RH  087%=      5-min Rain = 0
KRRS 110130Z 20007KT 02/00 A3028 RMK A01 T00230003  RH  088%=      5-min Rain = 0
KRRS 110135Z 20007KT 02/00 A3028 RMK A01 T00240002  RH  087%=      5-min Rain = 0
KRRS 110140Z 21008KT 02/00 A3028 RMK A01 T00200001  RH  088%=      5-min Rain = 0
KRRS 110145Z 21008KT 02/M00 A3028 RMK A01 T00171001  RH  089%=      5-min Rain = 0
KRRS 110150Z 21008KT 01/M00 A3027 RMK A01 T00141001  RH  091%=      5-min Rain = 0
KRRS 110155Z 21010KT 01/00 A3027 RMK A01 T001400-0  RH  091%=      5-min Rain = 0
KRRS 110200Z 21010KT 02/00 A3028 RMK A01 T00150000  RH  091%=      5-min Rain = 0
KRRS 110205Z 21009KT 02/00 A3028 RMK A01 T00150000  RH  091%=      5-min Rain = 0
KRRS 110210Z 21010KT 02/00 A3027 RMK A01 T00150001  RH  092%=      5-min Rain = 0
KRRS 110215Z 21010KT 02/00 A3027 RMK A01 T00150001  RH  092%=      5-min Rain = 0
KRRS 110220Z 21010KT 02/00 A3028 RMK A01 T00170003  RH  092%=      5-min Rain = 0
KRRS 110225Z 21010KT 02/00 A3028 RMK A01 T00190004  RH  091%=      5-min Rain = 0
KRRS 110230Z 21010KT 02/00 A3028 RMK A01 T00190003  RH  090%=      5-min Rain = 0
KRRS 110235Z 21010KT 02/00 A3028 RMK A01 T00180003  RH  090%=      5-min Rain = 0
KRRS 110240Z 22009KT 02/00 A3028 RMK A01 T00200003  RH  090%=      5-min Rain = 0
KRRS 110245Z 21009KT 02/00 A3028 RMK A01 T00200003  RH  089%=      5-min Rain = 0
KRRS 110250Z 21009KT 02/00 A3028 RMK A01 T00200002  RH  089%=      5-min Rain = 0
KRRS 110255Z 21009KT 02/00 A3028 RMK A01 T00180001  RH  090%=      5-min Rain = 0
KRRS 110300Z 21009KT 02/00 A3028 RMK A01 T00160000  RH  090%=      5-min Rain = 0
KRRS 110305Z 21009KT 02/00 A3028 RMK A01 T00160000  RH  090%=      5-min Rain = 0
KRRS 110310Z 21009KT 02/M00 A3028 RMK A01 T00161001  RH  090%=      5-min Rain = 0
KRRS 110315Z 21009KT 01/M00 A3028 RMK A01 T00141002  RH  090%=      5-min Rain = 0
KRRS 110320Z 21009KT 01/M00 A3028 RMK A01 T00141002  RH  090%=      5-min Rain = 0
KRRS 110325Z 21008KT 01/M00 A3028 RMK A01 T00131003  RH  090%=      5-min Rain = 0
KRRS 110330Z 21009KT 01/M00 A3028 RMK A01 T00111004  RH  091%=      5-min Rain = 0
KRRS 110335Z 21008KT 01/M01 A3028 RMK A01 T00101005  RH  091%=      5-min Rain = 0
KRRS 110340Z 21008KT 01/M01 A3028 RMK A01 T00111005  RH  090%=      5-min Rain = 0
KRRS 110345Z 21008KT 01/M01 A3028 RMK A01 T00121005  RH  089%=      5-min Rain = 0
KRRS 110350Z 21008KT 01/M01 A3028 RMK A01 T00131005  RH  089%=      5-min Rain = 0
KRRS 110355Z 21008KT 01/M01 A3028 RMK A01 T00141006  RH  088%=      5-min Rain = 0
KRRS 110400Z 21008KT 01/M01 A3028 RMK A01 T00141006  RH  087%=      5-min Rain = 0
KRRS 110405Z 21008KT 02/M01 A3028 RMK A01 T00151006  RH  087%=      5-min Rain = 0
KRRS 110410Z 21007KT 02/M01 A3028 RMK A01 T00151006  RH  087%=      5-min Rain = 0
KRRS 110415Z 21008KT 01/M01 A3028 RMK A01 T00131007  RH  088%=      5-min Rain = 0
KRRS 110420Z 21008KT 01/M01 A3028 RMK A01 T00141006  RH  088%=      5-min Rain = 0
KRRS 110425Z 20009KT 02/M01 A3028 RMK A01 T00151006  RH  087%=      5-min Rain = 0
KRRS 110430Z 20009KT 01/M01 A3028 RMK A01 T00121008  RH  088%=      5-min Rain = 0
KRRS 110435Z 21008KT 01/M01 A3028 RMK A01 T00101008  RH  089%=      5-min Rain = 0
KRRS 110440Z 21009KT 01/M01 A3027 RMK A01 T00091008  RH  089%=      5-min Rain = 0
KRRS 110445Z 20010KT 01/M01 A3027 RMK A01 T00091007  RH  090%=      5-min Rain = 0
KRRS 110450Z 20009KT 01/M01 A3027 RMK A01 T00101007  RH  089%=      5-min Rain = 0
KRRS 110455Z 21010KT 01/M01 A3027 RMK A01 T00061008  RH  091%=      5-min Rain = 0
KRRS 110500Z 21009KT 01/M01 A3027 RMK A01 T00091005  RH  092%=      5-min Rain = 0
KRRS 110505Z 21009KT 01/M00 A3027 RMK A01 T00111004  RH  091%=      5-min Rain = 0
KRRS 110510Z 21010KT 01/M00 A3027 RMK A01 T00131002  RH  091%=      5-min Rain = 0
KRRS 110515Z 21009KT 01/M00 A3027 RMK A01 T00131003  RH  090%=      5-min Rain = 0
KRRS 110520Z 21009KT 01/M00 A3027 RMK A01 T00101004  RH  092%=      5-min Rain = 0
KRRS 110525Z 21010KT 01/M00 A3027 RMK A01 T00101002  RH  093%=      5-min Rain = 0
KRRS 110530Z 21010KT 01/M00 A3027 RMK A01 T00101003  RH  092%=      5-min Rain = 0
KRRS 110535Z 21010KT 01/M00 A3027 RMK A01 T00091003  RH  093%=      5-min Rain = 0
KRRS 110540Z 21009KT 01/M00 A3027 RMK A01 T00111002  RH  092%=      5-min Rain = 0
KRRS 110545Z 21008KT 01/M00 A3027 RMK A01 T00101004  RH  092%=      5-min Rain = 0
KRRS 110550Z 21009KT 01/M00 A3027 RMK A01 T00081003  RH  093%=      5-min Rain = 0
KRRS 110555Z 20010KT 01/00 A3027 RMK A01 T00140001  RH  092%=      5-min Rain = 0

Page generated in 0.0106 seconds.